createdAt,value
2023-08-29T00:00:10.777Z,12.04
2023-08-29T00:02:42.332Z,12.03
2023-08-29T00:05:10.286Z,12.01
2023-08-29T00:07:37.581Z,11.98
2023-08-29T00:10:04.818Z,11.96
2023-08-29T00:12:33.159Z,12.00
2023-08-29T00:15:06.917Z,12.02
2023-08-29T00:17:33.367Z,12.08
2023-08-29T00:20:00.191Z,12.04
2023-08-29T00:22:26.614Z,12.01
2023-08-29T00:24:57.595Z,11.98
2023-08-29T00:27:24.413Z,11.96
2023-08-29T00:29:51.125Z,11.99
2023-08-29T00:32:17.929Z,12.08
2023-08-29T00:34:44.281Z,12.13
2023-08-29T00:37:11.140Z,12.12
2023-08-29T00:39:37.566Z,12.06
2023-08-29T00:42:04.286Z,12.06
2023-08-29T00:44:31.053Z,12.06
2023-08-29T00:46:58.439Z,12.04
2023-08-29T00:49:28.488Z,12.07
2023-08-29T00:51:55.117Z,12.07
2023-08-29T00:54:22.465Z,12.03
2023-08-29T00:56:49.625Z,12.03
2023-08-29T00:59:16.456Z,12.09
2023-08-29T01:01:45.323Z,12.12
2023-08-29T01:04:11.793Z,12.10
2023-08-29T01:06:41.969Z,11.99
2023-08-29T01:09:08.791Z,11.93
2023-08-29T01:12:13.224Z,11.91
2023-08-29T01:14:56.698Z,11.86
2023-08-29T01:17:32.821Z,11.89
2023-08-29T01:19:59.743Z,11.91
2023-08-29T01:22:52.515Z,11.90
2023-08-29T01:25:53.254Z,11.87
2023-08-29T01:28:21.563Z,11.87
2023-08-29T01:30:48.492Z,11.82
2023-08-29T01:33:15.006Z,11.78
2023-08-29T01:35:48.544Z,11.77
2023-08-29T01:38:18.651Z,11.70
2023-08-29T01:40:46.330Z,11.79
2023-08-29T01:43:12.958Z,11.75
2023-08-29T01:45:39.908Z,11.85
2023-08-29T01:48:06.867Z,11.86
2023-08-29T01:50:36.037Z,11.85
2023-08-29T01:53:02.833Z,11.82
2023-08-29T01:55:29.843Z,11.69
2023-08-29T01:57:58.934Z,11.69
2023-08-29T02:00:25.668Z,11.69
2023-08-29T02:02:52.707Z,11.75
2023-08-29T02:05:19.199Z,11.77
2023-08-29T02:07:46.058Z,11.71
2023-08-29T02:10:12.473Z,11.70
2023-08-29T02:12:38.850Z,11.71
2023-08-29T02:15:07.778Z,11.74
2023-08-29T02:17:34.533Z,11.74
2023-08-29T02:20:01.430Z,11.77
2023-08-29T02:22:27.830Z,11.70
2023-08-29T02:24:54.710Z,11.70
2023-08-29T02:27:21.082Z,11.66
2023-08-29T02:29:47.446Z,11.63
2023-08-29T02:32:15.631Z,11.56
2023-08-29T02:34:42.000Z,11.62
2023-08-29T02:37:08.781Z,11.64
2023-08-29T02:39:35.194Z,11.53
2023-08-29T02:42:01.971Z,11.54
2023-08-29T02:44:28.336Z,11.48
2023-08-29T02:46:54.731Z,11.47
2023-08-29T02:49:21.502Z,11.51
2023-08-29T02:51:47.927Z,11.44
2023-08-29T02:54:14.768Z,11.52
2023-08-29T02:56:41.156Z,11.59
2023-08-29T02:59:07.928Z,11.47
2023-08-29T03:01:34.295Z,11.44
2023-08-29T03:04:00.959Z,11.45
2023-08-29T03:06:27.811Z,11.45
2023-08-29T03:08:54.169Z,11.47
2023-08-29T03:11:20.980Z,11.46
2023-08-29T03:13:47.382Z,11.50
2023-08-29T03:16:18.068Z,11.48
2023-08-29T03:18:46.279Z,11.62
2023-08-29T03:21:12.713Z,11.55
2023-08-29T03:23:39.581Z,11.43
2023-08-29T03:26:10.445Z,11.40
2023-08-29T03:28:38.752Z,11.43
2023-08-29T03:31:09.285Z,11.52
2023-08-29T03:33:36.279Z,11.53
2023-08-29T03:36:03.886Z,11.45
2023-08-29T03:38:30.962Z,11.38
2023-08-29T03:40:58.159Z,11.38
2023-08-29T03:43:26.744Z,11.38
2023-08-29T03:46:04.045Z,11.43
2023-08-29T03:48:32.088Z,11.43
2023-08-29T03:50:59.935Z,11.36
2023-08-29T03:53:26.412Z,11.29
2023-08-29T03:55:53.314Z,11.36
2023-08-29T03:58:19.733Z,11.38
2023-08-29T04:00:46.312Z,11.43
2023-08-29T04:03:13.200Z,11.47
2023-08-29T04:05:39.869Z,11.43
2023-08-29T04:08:07.731Z,11.46
2023-08-29T04:10:38.828Z,11.52
2023-08-29T04:13:06.438Z,11.56
2023-08-29T04:15:34.506Z,11.39
2023-08-29T04:18:01.989Z,11.37
2023-08-29T04:20:30.332Z,11.32
2023-08-29T04:22:56.981Z,11.40
2023-08-29T04:25:23.703Z,11.43
2023-08-29T04:27:51.538Z,11.52
2023-08-29T04:30:18.844Z,11.50
2023-08-29T04:32:45.370Z,11.39
2023-08-29T04:35:11.794Z,11.29
2023-08-29T04:37:38.521Z,11.37
2023-08-29T04:40:08.783Z,11.52
2023-08-29T04:42:35.615Z,11.34
2023-08-29T04:45:05.224Z,11.39
2023-08-29T04:47:32.395Z,11.50
2023-08-29T04:50:00.262Z,11.40
2023-08-29T04:52:27.675Z,11.43
2023-08-29T04:54:57.695Z,11.45
2023-08-29T04:57:24.110Z,11.45
2023-08-29T04:59:51.033Z,11.50
2023-08-29T05:02:18.114Z,11.48
2023-08-29T05:04:44.828Z,11.52
2023-08-29T05:07:11.232Z,11.49
2023-08-29T05:09:37.734Z,11.37
2023-08-29T05:12:05.143Z,11.36
2023-08-29T05:14:31.551Z,11.48
2023-08-29T05:16:57.914Z,11.50
2023-08-29T05:19:24.342Z,11.36
2023-08-29T05:21:50.710Z,11.33
2023-08-29T05:24:17.085Z,11.27
2023-08-29T05:26:45.925Z,11.31
2023-08-29T05:29:12.712Z,11.29
2023-08-29T05:31:39.725Z,11.37
2023-08-29T05:34:06.578Z,11.28
2023-08-29T05:36:33.040Z,11.37
2023-08-29T05:39:01.068Z,11.29
2023-08-29T05:41:30.307Z,11.32
2023-08-29T05:43:56.705Z,11.41
2023-08-29T05:46:23.158Z,11.31
2023-08-29T05:48:49.974Z,11.37
2023-08-29T05:51:16.347Z,11.39
2023-08-29T05:53:43.114Z,11.52
2023-08-29T05:56:10.036Z,11.55
2023-08-29T05:58:36.778Z,11.43
2023-08-29T06:01:07.362Z,11.46
2023-08-29T06:03:35.983Z,11.53
2023-08-29T06:06:04.505Z,11.42
2023-08-29T06:08:34.312Z,11.40
2023-08-29T06:11:04.740Z,11.47
2023-08-29T06:13:31.151Z,11.47
2023-08-29T06:15:57.560Z,11.42
2023-08-29T06:18:24.359Z,11.45
2023-08-29T06:20:51.769Z,11.52
2023-08-29T06:23:19.000Z,11.48
2023-08-29T06:25:46.453Z,11.45
2023-08-29T06:28:12.896Z,11.61
2023-08-29T06:30:39.414Z,11.70
2023-08-29T06:33:08.262Z,11.74
2023-08-29T06:35:40.791Z,11.79
2023-08-29T06:38:09.000Z,11.73
2023-08-29T06:40:36.362Z,11.73
2023-08-29T06:43:03.052Z,11.75
2023-08-29T06:45:30.100Z,11.90
2023-08-29T06:47:56.876Z,11.98
2023-08-29T06:50:23.290Z,12.04
2023-08-29T06:52:50.184Z,12.08
2023-08-29T06:55:17.442Z,12.00
2023-08-29T06:57:43.844Z,12.06
2023-08-29T07:00:12.352Z,12.04
2023-08-29T07:02:38.890Z,12.02
2023-08-29T07:05:06.026Z,12.03
2023-08-29T07:07:32.764Z,12.11
2023-08-29T07:09:59.229Z,12.05
2023-08-29T07:12:25.790Z,12.13
2023-08-29T07:14:52.558Z,12.11
2023-08-29T07:17:19.066Z,12.19
2023-08-29T07:19:45.687Z,12.27
2023-08-29T07:22:23.576Z,12.25
2023-08-29T07:24:51.934Z,12.37
2023-08-29T07:27:19.139Z,12.41
2023-08-29T07:29:45.645Z,12.49
2023-08-29T07:32:12.214Z,12.59
2023-08-29T07:34:41.640Z,12.68
2023-08-29T07:37:08.962Z,12.65
2023-08-29T07:39:35.783Z,12.72
2023-08-29T07:42:03.129Z,12.78
2023-08-29T07:44:30.570Z,12.79
2023-08-29T07:47:13.483Z,12.85
2023-08-29T07:49:42.146Z,12.85
2023-08-29T07:52:08.634Z,12.91
2023-08-29T07:54:35.041Z,12.66
2023-08-29T07:57:01.619Z,12.57
2023-08-29T07:59:27.995Z,12.53
2023-08-29T08:01:55.098Z,12.55
2023-08-29T08:04:21.828Z,12.63
2023-08-29T08:06:48.270Z,12.54
2023-08-29T08:09:15.210Z,12.65
2023-08-29T08:11:42.776Z,12.60
2023-08-29T08:14:09.238Z,12.41
2023-08-29T08:16:35.738Z,12.69
2023-08-29T08:19:02.595Z,12.70
2023-08-29T08:21:28.973Z,12.56
2023-08-29T08:23:56.085Z,12.86
2023-08-29T08:26:22.872Z,12.95
2023-08-29T08:28:50.171Z,12.91
2023-08-29T08:31:16.671Z,12.99
2023-08-29T08:33:43.634Z,12.93
2023-08-29T08:36:10.143Z,12.93
2023-08-29T08:38:36.950Z,12.86
2023-08-29T08:41:05.478Z,13.12
2023-08-29T08:43:32.751Z,13.14
2023-08-29T08:45:59.794Z,13.21
2023-08-29T08:48:26.976Z,12.98
2023-08-29T08:50:53.790Z,12.75
2023-08-29T08:53:23.618Z,12.80
2023-08-29T08:55:53.735Z,12.77
2023-08-29T08:58:20.543Z,13.01
2023-08-29T09:00:48.414Z,13.23
2023-08-29T09:03:15.132Z,13.06
2023-08-29T09:05:42.816Z,13.22
2023-08-29T09:08:10.070Z,13.02
2023-08-29T09:10:40.723Z,13.20
2023-08-29T09:13:07.300Z,13.23
2023-08-29T09:15:35.616Z,13.46
2023-08-29T09:18:02.057Z,13.23
2023-08-29T09:20:30.303Z,13.26
2023-08-29T09:22:57.473Z,13.27
2023-08-29T09:25:27.206Z,13.02
2023-08-29T09:27:54.251Z,13.14
2023-08-29T09:30:21.293Z,13.29
2023-08-29T09:32:52.467Z,13.08
2023-08-29T09:35:26.444Z,13.35
2023-08-29T09:37:56.215Z,13.35
2023-08-29T09:42:59.574Z,13.34
2023-08-29T09:45:29.195Z,13.57
2023-08-29T09:47:55.658Z,13.49
2023-08-29T09:50:22.960Z,13.50
2023-08-29T09:52:52.402Z,13.66
2023-08-29T09:55:21.003Z,13.45
2023-08-29T09:57:52.604Z,13.63
2023-08-29T10:00:22.994Z,13.41
2023-08-29T10:02:55.935Z,13.51
2023-08-29T10:05:29.257Z,13.50
2023-08-29T10:07:59.070Z,13.70
2023-08-29T10:10:27.027Z,13.66
2023-08-29T10:12:55.561Z,13.76
2023-08-29T10:15:22.917Z,13.79
2023-08-29T10:17:50.170Z,13.91
2023-08-29T10:20:19.438Z,13.97
2023-08-29T10:22:49.761Z,14.09
2023-08-29T10:25:19.702Z,14.34
2023-08-29T10:27:48.048Z,14.24
2023-08-29T10:30:16.161Z,14.58
2023-08-29T10:32:44.336Z,14.47
2023-08-29T10:35:21.921Z,14.64
2023-08-29T10:37:53.309Z,14.28
2023-08-29T10:40:20.378Z,14.22
2023-08-29T10:42:56.127Z,14.02
2023-08-29T10:45:23.722Z,14.08
2023-08-29T10:47:51.007Z,14.34
2023-08-29T10:50:20.633Z,14.26
2023-08-29T10:52:48.321Z,14.15
2023-08-29T10:55:21.715Z,14.29
2023-08-29T10:57:49.887Z,14.61
2023-08-29T11:00:42.472Z,14.58
2023-08-29T11:03:10.142Z,14.78
2023-08-29T11:05:40.266Z,15.00
2023-08-29T11:08:21.692Z,15.17
2023-08-29T11:11:13.260Z,15.46
2023-08-29T11:13:57.680Z,15.41
2023-08-29T11:16:25.047Z,15.31
2023-08-29T11:19:11.929Z,15.31
2023-08-29T11:21:40.213Z,14.77
2023-08-29T11:26:45.429Z,14.96
2023-08-29T11:29:12.621Z,15.16
2023-08-29T11:31:44.418Z,15.09
2023-08-29T11:34:20.118Z,15.30
2023-08-29T11:36:49.947Z,15.10
2023-08-29T11:39:19.868Z,15.31
2023-08-29T11:42:05.039Z,15.04
2023-08-29T11:45:16.456Z,14.71
2023-08-29T11:47:24.976Z,15.19
2023-08-29T11:49:55.508Z,15.11
2023-08-29T11:52:22.740Z,15.41
2023-08-29T11:54:57.541Z,15.72
2023-08-29T11:57:24.840Z,15.59
2023-08-29T11:59:53.253Z,15.71
2023-08-29T12:02:25.056Z,14.95
2023-08-29T12:04:56.934Z,15.34
2023-08-29T12:07:25.369Z,15.49
2023-08-29T12:09:54.096Z,14.98
2023-08-29T12:12:32.127Z,15.13
2023-08-29T12:14:58.947Z,15.16
2023-08-29T12:17:40.621Z,14.81
2023-08-29T12:20:14.014Z,15.32
2023-08-29T12:22:49.545Z,15.51
2023-08-29T12:25:16.918Z,15.75
2023-08-29T12:27:45.753Z,15.79
2023-08-29T12:30:17.270Z,15.78
2023-08-29T12:32:48.256Z,15.85
2023-08-29T12:35:18.299Z,15.72
2023-08-29T12:37:45.669Z,15.46
2023-08-29T12:40:14.163Z,15.30
2023-08-29T12:42:44.178Z,15.47
2023-08-29T12:45:11.566Z,15.45
2023-08-29T12:47:39.134Z,15.70
2023-08-29T12:50:06.637Z,16.10
2023-08-29T12:52:34.098Z,15.94
2023-08-29T12:55:01.269Z,15.69
2023-08-29T12:57:28.630Z,15.70
2023-08-29T12:59:55.767Z,15.61
2023-08-29T13:02:23.878Z,15.55
2023-08-29T13:04:50.516Z,15.18
2023-08-29T13:07:17.478Z,15.17
2023-08-29T13:09:44.685Z,14.97
2023-08-29T13:12:11.249Z,14.86
2023-08-29T13:14:40.218Z,14.92
2023-08-29T13:17:08.926Z,14.77
2023-08-29T13:19:38.106Z,14.85
2023-08-29T13:22:07.680Z,14.54
2023-08-29T13:24:37.497Z,15.01
2023-08-29T13:27:04.782Z,14.94
2023-08-29T13:29:33.016Z,14.68
2023-08-29T13:32:00.117Z,14.76
2023-08-29T13:34:26.811Z,14.99
2023-08-29T13:36:53.410Z,14.96
2023-08-29T13:39:19.847Z,15.08
2023-08-29T13:41:46.655Z,14.83
2023-08-29T13:44:13.117Z,14.82
2023-08-29T13:46:41.477Z,15.07
2023-08-29T13:49:10.134Z,15.18
2023-08-29T13:51:36.506Z,15.21
2023-08-29T13:54:04.753Z,15.20
2023-08-29T13:56:31.260Z,15.35
2023-08-29T13:58:58.915Z,15.45
2023-08-29T14:01:25.845Z,15.34
2023-08-29T14:03:52.368Z,15.34
2023-08-29T14:06:18.903Z,15.24
2023-08-29T14:08:45.393Z,15.35
2023-08-29T14:11:12.224Z,15.34
2023-08-29T14:13:38.664Z,15.54
2023-08-29T14:16:05.284Z,15.16
2023-08-29T14:18:32.770Z,15.35
2023-08-29T14:20:59.180Z,15.31
2023-08-29T14:23:26.197Z,15.27
2023-08-29T14:25:52.962Z,15.18
2023-08-29T14:28:19.816Z,15.29
2023-08-29T14:30:47.642Z,15.29
2023-08-29T14:33:15.075Z,15.04
2023-08-29T14:35:42.687Z,14.64
2023-08-29T14:38:09.485Z,14.65
2023-08-29T14:40:36.665Z,15.00
2023-08-29T14:43:05.372Z,15.19
2023-08-29T14:45:31.905Z,15.30
2023-08-29T14:47:58.487Z,15.44
2023-08-29T14:50:26.031Z,15.45
2023-08-29T14:52:55.463Z,15.45
2023-08-29T14:55:24.164Z,15.29
2023-08-29T14:57:50.641Z,15.32
2023-08-29T15:00:18.180Z,15.50
2023-08-29T15:02:45.936Z,15.39
2023-08-29T15:05:13.349Z,15.30
2023-08-29T15:07:41.129Z,15.34
2023-08-29T15:10:08.916Z,15.47
2023-08-29T15:12:35.333Z,15.44
2023-08-29T15:15:02.730Z,15.50
2023-08-29T15:17:30.820Z,15.44
2023-08-29T15:19:58.439Z,15.50
2023-08-29T15:22:25.300Z,15.53
2023-08-29T15:24:52.410Z,15.53
2023-08-29T15:27:19.105Z,15.42
2023-08-29T15:29:45.716Z,15.54
2023-08-29T15:32:12.684Z,15.57
2023-08-29T15:34:39.158Z,15.54
2023-08-29T15:37:06.223Z,15.52
2023-08-29T15:39:34.039Z,15.43
2023-08-29T15:42:00.781Z,15.28
2023-08-29T15:44:32.728Z,15.19
2023-08-29T15:46:59.196Z,15.17
2023-08-29T15:49:26.137Z,15.17
2023-08-29T15:51:52.523Z,15.28
2023-08-29T15:54:19.068Z,15.34
2023-08-29T15:56:45.773Z,15.35
2023-08-29T15:59:13.511Z,15.39
2023-08-29T16:01:39.926Z,15.38
2023-08-29T16:04:06.973Z,15.58
2023-08-29T16:06:34.267Z,15.48
2023-08-29T16:09:01.321Z,15.45
2023-08-29T16:11:28.399Z,15.32
2023-08-29T16:13:54.896Z,15.37
2023-08-29T16:16:21.655Z,15.18
2023-08-29T16:18:48.091Z,14.98
2023-08-29T16:21:17.179Z,15.04
2023-08-29T16:23:46.729Z,15.25
2023-08-29T16:26:17.774Z,15.16
2023-08-29T16:28:44.562Z,14.85
2023-08-29T16:31:11.130Z,14.60
2023-08-29T16:33:37.704Z,14.63
2023-08-29T16:36:05.081Z,14.60
2023-08-29T16:38:31.850Z,14.88
2023-08-29T16:40:59.524Z,14.88
2023-08-29T16:43:27.502Z,15.00
2023-08-29T16:45:54.044Z,14.91
2023-08-29T16:48:20.609Z,14.83
2023-08-29T16:50:48.436Z,14.76
2023-08-29T16:53:15.445Z,14.81
2023-08-29T16:55:42.368Z,14.82
2023-08-29T16:58:09.220Z,14.78
2023-08-29T17:00:36.233Z,14.81
2023-08-29T17:03:11.086Z,14.84
2023-08-29T17:05:37.992Z,14.74
2023-08-29T17:08:06.468Z,14.72
2023-08-29T17:10:33.518Z,14.60
2023-08-29T17:13:00.701Z,14.46
2023-08-29T17:15:27.351Z,14.43
2023-08-29T17:17:53.795Z,14.47
2023-08-29T17:20:20.942Z,14.33
2023-08-29T17:22:49.363Z,14.46
2023-08-29T17:25:16.019Z,14.37
2023-08-29T17:27:42.585Z,14.26
2023-08-29T17:30:09.744Z,14.22
2023-08-29T17:32:36.230Z,14.08
2023-08-29T17:35:02.675Z,14.10
2023-08-29T17:37:29.574Z,14.09
2023-08-29T17:39:55.967Z,13.98
2023-08-29T17:42:22.435Z,13.89
2023-08-29T17:44:50.864Z,13.85
2023-08-29T17:47:17.770Z,13.81
2023-08-29T17:49:44.322Z,13.85
2023-08-29T17:52:11.396Z,13.84
2023-08-29T17:54:38.242Z,13.68
2023-08-29T17:57:04.696Z,13.65
2023-08-29T17:59:31.511Z,13.61
2023-08-29T18:01:57.940Z,13.63
2023-08-29T18:04:24.796Z,13.63
2023-08-29T18:06:51.220Z,13.53
2023-08-29T18:09:19.236Z,13.47
2023-08-29T18:11:46.251Z,13.47
2023-08-29T18:14:12.720Z,13.38
2023-08-29T18:16:39.624Z,13.36
2023-08-29T18:19:06.045Z,13.25
2023-08-29T18:21:32.969Z,13.21
2023-08-29T18:23:59.390Z,13.27
2023-08-29T18:26:26.236Z,13.28
2023-08-29T18:28:52.968Z,13.20
2023-08-29T18:31:19.661Z,13.23
2023-08-29T18:33:46.558Z,13.25
2023-08-29T18:36:13.093Z,13.17
2023-08-29T18:38:39.677Z,13.21
2023-08-29T18:41:06.523Z,13.15
2023-08-29T18:43:32.941Z,13.07
2023-08-29T18:45:59.966Z,13.09
2023-08-29T18:48:26.565Z,13.02
2023-08-29T18:50:53.274Z,13.08
2023-08-29T18:53:21.149Z,13.10
2023-08-29T18:55:47.941Z,13.14
2023-08-29T18:58:14.628Z,13.02
2023-08-29T19:00:43.811Z,13.05
2023-08-29T19:03:11.087Z,13.09
2023-08-29T19:05:39.871Z,13.00
2023-08-29T19:08:06.975Z,13.03
2023-08-29T19:10:33.709Z,13.05
2023-08-29T19:13:01.064Z,13.02
2023-08-29T19:15:28.003Z,13.02
2023-08-29T19:17:54.531Z,13.00
2023-08-29T19:20:20.991Z,13.02
2023-08-29T19:22:47.692Z,13.06
2023-08-29T19:25:14.606Z,13.05
2023-08-29T19:27:40.981Z,13.06
2023-08-29T19:30:09.925Z,13.02
2023-08-29T19:32:36.997Z,13.03
2023-08-29T19:35:05.040Z,12.99
2023-08-29T19:37:32.303Z,12.96
2023-08-29T19:39:58.711Z,12.98
2023-08-29T19:42:25.639Z,12.91
2023-08-29T19:44:52.085Z,12.94
2023-08-29T19:47:20.026Z,12.90
2023-08-29T19:49:48.793Z,12.90
2023-08-29T19:52:15.247Z,12.88
2023-08-29T19:54:42.104Z,12.89
2023-08-29T19:57:08.562Z,12.90
2023-08-29T19:59:36.745Z,12.86
2023-08-29T20:02:03.292Z,12.92
2023-08-29T20:04:29.668Z,12.84
2023-08-29T20:06:56.057Z,12.87
2023-08-29T20:09:23.523Z,12.84
2023-08-29T20:11:50.379Z,12.75
2023-08-29T20:14:16.729Z,12.80
2023-08-29T20:16:43.629Z,12.82
2023-08-29T20:19:10.644Z,12.83
2023-08-29T20:21:37.066Z,12.82
2023-08-29T20:24:04.019Z,12.77
2023-08-29T20:26:31.959Z,12.70
2023-08-29T20:29:00.577Z,12.80
2023-08-29T20:31:27.297Z,12.79
2023-08-29T20:33:53.771Z,12.73
2023-08-29T20:36:20.161Z,12.75
2023-08-29T20:38:46.514Z,12.72
2023-08-29T20:41:13.077Z,12.75
2023-08-29T20:43:39.512Z,12.78
2023-08-29T20:46:05.907Z,12.76
2023-08-29T20:48:32.785Z,12.76
2023-08-29T20:51:04.582Z,12.76
2023-08-29T20:53:33.096Z,12.83
2023-08-29T20:55:59.528Z,12.78
2023-08-29T20:58:26.242Z,12.83
2023-08-29T21:00:57.659Z,12.70
2023-08-29T21:03:24.598Z,12.59
2023-08-29T21:05:51.179Z,12.55
2023-08-29T21:08:17.918Z,12.53
2023-08-29T21:10:44.875Z,12.50
2023-08-29T21:13:12.147Z,12.50
2023-08-29T21:15:41.852Z,12.46
2023-08-29T21:18:08.372Z,12.37
2023-08-29T21:20:38.281Z,12.35
2023-08-29T21:23:06.201Z,12.26
2023-08-29T21:25:34.498Z,12.14
2023-08-29T21:28:00.870Z,12.05
2023-08-29T21:30:27.272Z,12.05
2023-08-29T21:32:54.086Z,12.01
2023-08-29T21:35:22.382Z,11.98
2023-08-29T21:37:49.150Z,11.95
2023-08-29T21:40:15.636Z,11.94
2023-08-29T21:42:45.082Z,11.97
2023-08-29T21:45:11.644Z,12.01
2023-08-29T21:47:38.064Z,11.99
2023-08-29T21:50:05.357Z,11.93
2023-08-29T21:52:31.725Z,12.01
2023-08-29T21:54:58.470Z,12.00
2023-08-29T21:57:24.839Z,11.99
2023-08-29T21:59:51.249Z,12.05
2023-08-29T22:02:17.694Z,11.95
2023-08-29T22:04:49.215Z,11.94
2023-08-29T22:07:15.998Z,11.90
2023-08-29T22:09:42.643Z,11.85
2023-08-29T22:12:09.509Z,11.77
2023-08-29T22:14:35.938Z,11.87
2023-08-29T22:17:03.435Z,11.92
2023-08-29T22:19:29.815Z,12.05
2023-08-29T22:21:56.212Z,11.96
2023-08-29T22:24:22.899Z,11.93
2023-08-29T22:26:49.793Z,11.96
2023-08-29T22:29:16.213Z,11.94
2023-08-29T22:31:43.965Z,11.95
2023-08-29T22:34:10.904Z,11.95
2023-08-29T22:36:37.296Z,11.94
2023-08-29T22:39:04.635Z,11.93
2023-08-29T22:41:34.744Z,11.91
2023-08-29T22:44:05.258Z,11.88
2023-08-29T22:46:32.095Z,11.89
2023-08-29T22:48:58.470Z,11.93
2023-08-29T22:51:25.431Z,11.97
2023-08-29T22:53:51.799Z,11.99
2023-08-29T22:56:18.243Z,11.99
2023-08-29T22:58:47.112Z,11.98
2023-08-29T23:01:13.923Z,11.98
2023-08-29T23:03:40.966Z,12.00
2023-08-29T23:06:07.354Z,11.98
2023-08-29T23:08:39.427Z,11.86
2023-08-29T23:11:06.127Z,11.86
2023-08-29T23:13:32.741Z,11.90
2023-08-29T23:16:05.658Z,11.90
2023-08-29T23:18:32.248Z,11.88
2023-08-29T23:20:59.181Z,11.87
2023-08-29T23:23:25.557Z,11.92
2023-08-29T23:25:56.752Z,11.89
2023-08-29T23:28:24.032Z,11.86
2023-08-29T23:30:51.156Z,11.92
2023-08-29T23:33:18.396Z,11.94
2023-08-29T23:35:44.837Z,11.96
2023-08-29T23:38:11.382Z,12.01
2023-08-29T23:40:38.257Z,12.01
2023-08-29T23:43:06.078Z,11.98
2023-08-29T23:45:32.635Z,12.06
2023-08-29T23:48:00.520Z,12.08
2023-08-29T23:50:27.670Z,12.06
2023-08-29T23:52:54.045Z,12.09
2023-08-29T23:55:20.822Z,12.02
2023-08-29T23:57:47.182Z,12.02
